createdAt,value
2023-01-29T00:02:41.060Z,12.70
2023-01-29T00:05:43.221Z,13.70
2023-01-29T00:08:45.867Z,12.90
2023-01-29T00:11:48.166Z,13.15
2023-01-29T00:14:50.263Z,13.30
2023-01-29T00:17:52.367Z,13.25
2023-01-29T00:20:55.342Z,12.95
2023-01-29T00:23:57.835Z,13.00
2023-01-29T00:26:59.942Z,13.90
2023-01-29T00:30:15.004Z,13.90
2023-01-29T00:33:17.838Z,13.38
2023-01-29T00:36:21.958Z,13.48
2023-01-29T00:39:31.377Z,13.73
2023-01-29T00:43:00.037Z,14.13
2023-01-29T00:46:02.097Z,14.30
2023-01-29T00:49:06.778Z,15.20
2023-01-29T00:52:23.971Z,14.70
2023-01-29T00:55:26.204Z,14.43
2023-01-29T00:58:34.501Z,14.38
2023-01-29T01:01:55.629Z,14.75
2023-01-29T01:04:57.908Z,14.77
2023-01-29T01:07:59.999Z,14.50
2023-01-29T01:11:05.960Z,14.55
2023-01-29T01:14:08.651Z,13.57
2023-01-29T01:17:10.744Z,13.20
2023-01-29T01:20:13.423Z,13.38
2023-01-29T01:23:19.586Z,13.77
2023-01-29T01:26:21.875Z,14.10
2023-01-29T01:29:24.627Z,13.20
2023-01-29T01:32:26.708Z,13.60
2023-01-29T01:35:28.845Z,13.20
2023-01-29T01:38:30.997Z,13.27
2023-01-29T01:41:33.322Z,11.65
2023-01-29T01:44:59.285Z,12.73
2023-01-29T01:48:07.572Z,12.45
2023-01-29T01:51:09.946Z,12.55
2023-01-29T01:54:21.239Z,12.63
2023-01-29T01:57:25.623Z,12.50
2023-01-29T02:00:28.080Z,11.60
2023-01-29T02:03:51.919Z,11.93
2023-01-29T02:07:14.348Z,12.40
2023-01-29T02:10:18.699Z,11.45
2023-01-29T02:13:22.161Z,11.90
2023-01-29T02:16:24.343Z,12.23
2023-01-29T02:19:42.105Z,11.50
2023-01-29T02:23:03.683Z,10.52
2023-01-29T02:26:39.171Z,9.93
2023-01-29T02:30:04.406Z,10.00
2023-01-29T02:33:34.643Z,9.95
2023-01-29T02:36:50.642Z,9.80
2023-01-29T02:40:19.882Z,9.70
2023-01-29T02:43:30.872Z,9.55
2023-01-29T02:46:45.519Z,9.63
2023-01-29T02:49:56.402Z,9.05
2023-01-29T02:53:21.367Z,9.20
2023-01-29T02:56:41.473Z,8.77
2023-01-29T02:59:50.412Z,8.38
2023-01-29T03:03:01.099Z,8.77
2023-01-29T03:06:22.379Z,8.38
2023-01-29T03:09:36.644Z,8.27
2023-01-29T03:12:40.885Z,8.85
2023-01-29T03:15:51.297Z,7.88
2023-01-29T03:19:00.375Z,8.05
2023-01-29T03:22:06.048Z,8.30
2023-01-29T03:25:28.887Z,8.23
2023-01-29T03:28:51.742Z,7.55
2023-01-29T03:32:08.445Z,8.65
2023-01-29T03:35:13.095Z,8.25
2023-01-29T03:38:15.988Z,7.43
2023-01-29T03:41:26.936Z,7.80
2023-01-29T03:44:32.370Z,7.07
2023-01-29T03:47:42.296Z,6.65
2023-01-29T03:51:18.812Z,7.38
2023-01-29T03:54:57.525Z,7.00
2023-01-29T03:58:20.887Z,7.10
2023-01-29T04:01:32.280Z,6.60
2023-01-29T04:04:36.960Z,6.35
2023-01-29T04:07:41.928Z,6.22
2023-01-29T04:10:52.949Z,6.30
2023-01-29T04:14:00.031Z,6.03
2023-01-29T04:17:34.198Z,6.03
2023-01-29T04:20:37.966Z,6.50
2023-01-29T04:23:40.060Z,5.85
2023-01-29T04:27:03.665Z,5.40
2023-01-29T04:30:35.574Z,6.15
2023-01-29T04:33:58.859Z,5.95
2023-01-29T04:37:27.038Z,6.28
2023-01-29T04:41:00.053Z,5.70
2023-01-29T04:44:23.000Z,6.07
2023-01-29T04:47:40.421Z,5.65
2023-01-29T04:50:57.988Z,6.10
2023-01-29T04:54:11.123Z,5.88
2023-01-29T04:57:46.327Z,6.18
2023-01-29T05:00:53.572Z,5.80
2023-01-29T05:03:56.432Z,5.78
2023-01-29T05:07:04.237Z,6.15
2023-01-29T05:10:09.223Z,6.32
2023-01-29T05:13:14.448Z,6.22
2023-01-29T05:16:27.913Z,6.45
2023-01-29T05:19:30.046Z,6.28
2023-01-29T05:22:32.684Z,6.55
2023-01-29T05:25:35.327Z,5.95
2023-01-29T05:28:37.633Z,6.25
2023-01-29T05:31:39.801Z,6.75
2023-01-29T05:34:41.988Z,7.03
2023-01-29T05:37:44.717Z,6.43
2023-01-29T05:41:06.665Z,7.90
2023-01-29T05:44:10.694Z,9.82
2023-01-29T05:47:12.898Z,8.85
2023-01-29T05:50:16.528Z,9.25
2023-01-29T05:53:19.607Z,7.43
2023-01-29T05:56:21.898Z,7.88
2023-01-29T05:59:23.939Z,7.53
2023-01-29T06:02:26.134Z,9.60
2023-01-29T06:05:28.209Z,11.38
2023-01-29T06:08:30.397Z,10.18
2023-01-29T06:11:32.848Z,12.70
2023-01-29T06:14:34.892Z,11.38
2023-01-29T06:17:37.196Z,10.25
2023-01-29T06:20:40.120Z,8.95
2023-01-29T06:23:42.408Z,10.13
2023-01-29T06:26:44.483Z,9.15
2023-01-29T06:29:46.615Z,8.75
2023-01-29T06:32:49.327Z,9.52
2023-01-29T06:35:59.691Z,9.20
2023-01-29T06:39:01.944Z,8.30
2023-01-29T06:42:04.171Z,9.80
2023-01-29T06:45:06.752Z,9.43
2023-01-29T06:48:08.877Z,9.85
2023-01-29T06:51:11.240Z,11.23
2023-01-29T06:54:13.377Z,11.73
2023-01-29T06:57:15.418Z,14.88
2023-01-29T07:00:18.736Z,17.42
2023-01-29T07:03:21.164Z,14.18
2023-01-29T07:06:28.331Z,15.13
2023-01-29T07:09:30.698Z,15.73
2023-01-29T07:12:32.910Z,19.52
2023-01-29T07:15:37.194Z,18.75
2023-01-29T07:18:41.466Z,15.77
2023-01-29T07:21:43.904Z,12.85
2023-01-29T07:24:46.273Z,13.00
2023-01-29T07:27:49.686Z,12.98
2023-01-29T07:30:57.069Z,12.82
2023-01-29T07:33:59.166Z,13.48
2023-01-29T07:37:01.186Z,11.27
2023-01-29T07:40:05.459Z,10.23
2023-01-29T07:43:10.562Z,9.90
2023-01-29T07:46:12.744Z,9.88
2023-01-29T07:49:15.558Z,10.30
2023-01-29T07:52:20.271Z,11.65
2023-01-29T07:55:24.759Z,9.00
2023-01-29T07:58:26.975Z,8.98
2023-01-29T08:01:29.235Z,10.05
2023-01-29T08:04:31.406Z,8.80
2023-01-29T08:07:33.624Z,8.43
2023-01-29T08:10:38.156Z,8.77
2023-01-29T08:13:40.238Z,8.10
2023-01-29T08:16:42.394Z,7.75
2023-01-29T08:19:44.558Z,7.95
2023-01-29T08:22:47.297Z,8.35
2023-01-29T08:25:49.505Z,8.23
2023-01-29T08:28:51.777Z,10.30
2023-01-29T08:31:53.988Z,10.40
2023-01-29T08:34:56.131Z,9.02
2023-01-29T08:38:00.623Z,8.20
2023-01-29T08:41:03.615Z,8.00
2023-01-29T08:44:05.911Z,8.05
2023-01-29T08:47:07.999Z,7.57
2023-01-29T08:50:10.721Z,7.10
2023-01-29T08:53:13.121Z,7.43
2023-01-29T08:56:16.504Z,7.68
2023-01-29T08:59:19.172Z,7.75
2023-01-29T09:02:21.303Z,7.18
2023-01-29T09:05:23.591Z,7.15
2023-01-29T09:08:25.746Z,6.88
2023-01-29T09:11:28.115Z,7.05
2023-01-29T09:14:30.524Z,7.30
2023-01-29T09:17:32.595Z,7.70
2023-01-29T09:20:38.081Z,7.90
2023-01-29T09:23:40.825Z,7.88
2023-01-29T09:26:44.451Z,6.75
2023-01-29T09:29:46.578Z,8.13
2023-01-29T09:32:53.573Z,6.90
2023-01-29T09:35:56.666Z,7.88
2023-01-29T09:38:59.030Z,7.43
2023-01-29T09:42:41.916Z,8.38
2023-01-29T09:45:58.334Z,7.72
2023-01-29T09:49:07.342Z,6.85
2023-01-29T09:52:26.556Z,7.35
2023-01-29T09:55:39.255Z,7.80
2023-01-29T09:58:43.792Z,8.43
2023-01-29T10:01:53.882Z,6.95
2023-01-29T10:05:02.510Z,8.65
2023-01-29T10:08:28.472Z,8.00
2023-01-29T10:11:43.149Z,8.23
2023-01-29T10:15:06.079Z,7.45
2023-01-29T10:18:22.930Z,7.80
2023-01-29T10:21:40.225Z,7.40
2023-01-29T10:25:05.132Z,7.63
2023-01-29T10:28:25.352Z,7.38
2023-01-29T10:31:33.341Z,7.68
2023-01-29T10:34:47.547Z,7.10
2023-01-29T10:37:53.300Z,7.65
2023-01-29T10:41:29.012Z,9.10
2023-01-29T10:45:00.668Z,7.55
2023-01-29T10:48:31.371Z,11.57
2023-01-29T10:51:45.757Z,9.77
2023-01-29T10:54:55.768Z,8.85
2023-01-29T10:58:09.843Z,9.77
2023-01-29T11:01:14.427Z,8.65
2023-01-29T11:04:16.839Z,8.55
2023-01-29T11:07:21.621Z,7.78
2023-01-29T11:10:25.731Z,9.52
2023-01-29T11:13:34.991Z,10.40
2023-01-29T11:16:47.083Z,9.20
2023-01-29T11:19:55.625Z,9.55
2023-01-29T11:22:59.380Z,10.07
2023-01-29T11:26:11.110Z,11.40
2023-01-29T11:29:38.241Z,10.27
2023-01-29T11:32:41.340Z,8.30
2023-01-29T11:35:43.638Z,10.52
2023-01-29T11:38:46.081Z,13.05
2023-01-29T11:41:53.894Z,10.32
2023-01-29T11:44:56.329Z,10.95
2023-01-29T11:47:59.813Z,11.25
2023-01-29T11:51:04.866Z,18.50
2023-01-29T11:54:18.170Z,10.75
2023-01-29T11:57:26.029Z,9.82
2023-01-29T12:00:36.604Z,10.93
2023-01-29T12:03:45.248Z,13.20
2023-01-29T12:06:51.969Z,10.30
2023-01-29T12:09:57.968Z,12.18
2023-01-29T12:13:10.983Z,9.25
2023-01-29T12:16:23.909Z,13.80
2023-01-29T12:19:38.674Z,9.82
2023-01-29T12:23:01.622Z,8.35
2023-01-29T12:26:16.306Z,9.40
2023-01-29T12:29:46.738Z,9.13
2023-01-29T12:36:10.980Z,8.80
2023-01-29T12:39:17.019Z,9.27
2023-01-29T12:42:24.288Z,9.10
2023-01-29T12:45:28.801Z,8.80
2023-01-29T12:48:39.037Z,8.75
2023-01-29T12:51:51.743Z,9.18
2023-01-29T12:55:00.624Z,8.27
2023-01-29T12:58:19.472Z,9.20
2023-01-29T13:01:37.159Z,9.10
2023-01-29T13:04:46.913Z,10.82
2023-01-29T13:07:56.040Z,8.85
2023-01-29T13:11:02.420Z,8.93
2023-01-29T13:14:09.770Z,8.82
2023-01-29T13:17:28.172Z,9.32
2023-01-29T13:20:35.899Z,8.50
2023-01-29T13:23:43.815Z,8.82
2023-01-29T13:26:48.724Z,9.20
2023-01-29T13:29:51.063Z,8.48
2023-01-29T13:32:55.243Z,9.00
2023-01-29T13:36:00.659Z,8.82
2023-01-29T13:39:03.644Z,8.43
2023-01-29T13:42:32.768Z,8.60
2023-01-29T13:45:54.792Z,8.13
2023-01-29T13:49:00.943Z,8.32
2023-01-29T13:52:35.621Z,8.93
2023-01-29T13:55:39.861Z,8.68
2023-01-29T13:58:45.420Z,9.63
2023-01-29T14:01:47.625Z,9.43
2023-01-29T14:04:50.168Z,8.98
2023-01-29T14:07:53.162Z,9.60
2023-01-29T14:11:14.555Z,8.95
2023-01-29T14:14:47.699Z,9.07
2023-01-29T14:18:00.586Z,8.63
2023-01-29T14:21:21.926Z,8.93
2023-01-29T14:24:30.712Z,8.50
2023-01-29T14:27:34.755Z,9.25
2023-01-29T14:30:40.959Z,8.65
2023-01-29T14:33:44.887Z,9.25
2023-01-29T14:36:55.568Z,10.18
2023-01-29T14:40:12.575Z,9.15
2023-01-29T14:43:24.367Z,9.55
2023-01-29T14:46:36.837Z,9.05
2023-01-29T14:49:54.488Z,9.68
2023-01-29T14:53:23.648Z,8.90
2023-01-29T14:56:37.220Z,8.93
2023-01-29T15:00:11.529Z,9.50
2023-01-29T15:03:22.666Z,9.35
2023-01-29T15:06:34.221Z,10.90
2023-01-29T15:09:46.736Z,15.23
2023-01-29T15:13:01.939Z,11.45
2023-01-29T15:16:16.330Z,10.38
2023-01-29T15:19:26.630Z,8.85
2023-01-29T15:22:32.862Z,9.10
2023-01-29T15:25:46.669Z,9.10
2023-01-29T15:29:04.874Z,9.00
2023-01-29T15:32:08.245Z,8.77
2023-01-29T15:35:34.336Z,7.75
2023-01-29T15:38:37.314Z,8.38
2023-01-29T15:41:41.952Z,8.15
2023-01-29T15:44:47.620Z,7.93
2023-01-29T15:47:51.270Z,7.75
2023-01-29T15:50:55.639Z,8.13
2023-01-29T15:54:07.448Z,8.07
2023-01-29T15:57:24.872Z,8.43
2023-01-29T16:00:30.100Z,7.40
2023-01-29T16:03:34.713Z,7.68
2023-01-29T16:06:41.713Z,8.10
2023-01-29T16:09:45.234Z,7.70
2023-01-29T16:12:53.633Z,8.27
2023-01-29T16:16:15.590Z,8.53
2023-01-29T16:19:25.060Z,8.50
2023-01-29T16:22:34.700Z,8.57
2023-01-29T16:25:39.664Z,7.70
2023-01-29T16:28:47.552Z,7.60
2023-01-29T16:32:00.878Z,8.13
2023-01-29T16:35:04.281Z,7.97
2023-01-29T16:38:28.793Z,7.38
2023-01-29T16:41:37.971Z,8.18
2023-01-29T16:44:48.487Z,7.50
2023-01-29T16:48:02.424Z,8.63
2023-01-29T16:51:14.527Z,8.32
2023-01-29T16:54:22.341Z,7.97
2023-01-29T16:57:29.640Z,8.10
2023-01-29T17:00:34.478Z,8.38
2023-01-29T17:03:39.381Z,9.10
2023-01-29T17:06:49.595Z,9.02
2023-01-29T17:09:58.896Z,10.07
2023-01-29T17:13:07.036Z,10.85
2023-01-29T17:16:26.394Z,12.02
2023-01-29T17:19:30.351Z,12.93
2023-01-29T17:22:34.069Z,17.27
2023-01-29T17:25:41.573Z,16.40
2023-01-29T17:28:45.252Z,19.67
2023-01-29T17:31:49.451Z,27.27
2023-01-29T17:34:52.866Z,23.95
2023-01-29T17:37:56.226Z,23.13
2023-01-29T17:41:07.591Z,22.88
2023-01-29T17:44:12.193Z,23.48
2023-01-29T17:47:15.767Z,22.90
2023-01-29T17:50:30.770Z,17.70
2023-01-29T17:53:45.172Z,16.95
2023-01-29T17:56:50.713Z,22.70
2023-01-29T17:59:54.164Z,20.67
2023-01-29T18:03:01.510Z,19.83
2023-01-29T18:06:08.589Z,18.35
2023-01-29T18:09:15.817Z,19.13
2023-01-29T18:12:19.820Z,20.02
2023-01-29T18:15:23.227Z,19.52
2023-01-29T18:18:27.391Z,20.05
2023-01-29T18:21:30.591Z,18.67
2023-01-29T18:24:36.712Z,19.58
2023-01-29T18:27:40.103Z,20.42
2023-01-29T18:30:46.696Z,24.77
2023-01-29T18:33:50.314Z,27.88
2023-01-29T18:36:54.290Z,26.35
2023-01-29T18:39:57.971Z,26.58
2023-01-29T18:43:01.893Z,29.83
2023-01-29T18:46:07.188Z,28.00
2023-01-29T18:49:11.412Z,22.88
2023-01-29T18:52:17.721Z,23.52
2023-01-29T18:55:21.208Z,24.77
2023-01-29T18:58:33.679Z,21.27
2023-01-29T19:01:39.048Z,15.25
2023-01-29T19:04:43.654Z,14.80
2023-01-29T19:07:46.717Z,13.85
2023-01-29T19:10:50.741Z,14.02
2023-01-29T19:13:57.027Z,13.40
2023-01-29T19:17:02.086Z,14.18
2023-01-29T19:20:06.397Z,14.15
2023-01-29T19:23:12.092Z,11.45
2023-01-29T19:26:16.156Z,10.40
2023-01-29T19:29:22.727Z,8.32
2023-01-29T19:32:28.665Z,8.13
2023-01-29T19:35:33.269Z,8.38
2023-01-29T19:38:39.124Z,7.82
2023-01-29T19:41:42.970Z,8.10
2023-01-29T19:44:47.461Z,7.80
2023-01-29T19:47:52.480Z,7.80
2023-01-29T19:51:09.918Z,8.93
2023-01-29T19:54:13.803Z,8.35
2023-01-29T19:57:18.709Z,7.07
2023-01-29T20:00:23.906Z,7.78
2023-01-29T20:03:29.459Z,7.90
2023-01-29T20:06:37.160Z,8.05
2023-01-29T20:09:42.191Z,8.05
2023-01-29T20:12:48.030Z,8.45
2023-01-29T20:15:52.979Z,8.10
2023-01-29T20:19:14.562Z,8.32
2023-01-29T20:22:18.443Z,8.32
2023-01-29T20:25:21.808Z,9.10
2023-01-29T20:28:25.676Z,9.48
2023-01-29T20:31:29.582Z,10.80
2023-01-29T20:34:33.507Z,10.52
2023-01-29T20:37:36.680Z,12.13
2023-01-29T20:40:40.080Z,11.48
2023-01-29T20:43:44.460Z,11.43
2023-01-29T20:46:48.306Z,11.55
2023-01-29T20:49:51.495Z,10.65
2023-01-29T20:52:55.656Z,10.07
2023-01-29T20:55:59.246Z,9.80
2023-01-29T20:59:03.989Z,9.10
2023-01-29T21:02:07.320Z,9.60
2023-01-29T21:05:13.591Z,10.40
2023-01-29T21:08:17.866Z,9.63
2023-01-29T21:11:22.741Z,8.75
2023-01-29T21:14:25.613Z,9.75
2023-01-29T21:17:29.123Z,9.82
2023-01-29T21:20:33.207Z,9.13
2023-01-29T21:23:36.426Z,8.82
2023-01-29T21:26:39.870Z,9.82
2023-01-29T21:29:42.787Z,9.13
2023-01-29T21:32:46.750Z,9.80
2023-01-29T21:35:58.078Z,9.50
2023-01-29T21:39:01.094Z,9.43
2023-01-29T21:42:22.776Z,9.93
2023-01-29T21:45:25.231Z,9.13
2023-01-29T21:48:27.854Z,9.20
2023-01-29T21:51:30.577Z,9.35
2023-01-29T21:54:35.926Z,10.80
2023-01-29T21:57:38.391Z,9.82
2023-01-29T22:00:40.739Z,10.65
2023-01-29T22:03:44.132Z,12.15
2023-01-29T22:06:47.109Z,13.48
2023-01-29T22:09:49.357Z,14.35
2023-01-29T22:12:51.463Z,15.27
2023-01-29T22:15:56.728Z,14.20
2023-01-29T22:18:58.911Z,13.55
2023-01-29T22:22:01.387Z,15.23
2023-01-29T22:25:03.958Z,15.82
2023-01-29T22:28:06.051Z,15.60
2023-01-29T22:31:08.183Z,15.95
2023-01-29T22:34:11.190Z,15.52
2023-01-29T22:37:13.236Z,15.77
2023-01-29T22:40:15.894Z,16.50
2023-01-29T22:43:18.239Z,15.45
2023-01-29T22:46:20.497Z,15.65
2023-01-29T22:49:23.323Z,13.30
2023-01-29T22:52:27.979Z,14.25
2023-01-29T22:55:30.117Z,14.40
2023-01-29T22:58:32.521Z,15.30
2023-01-29T23:01:35.078Z,15.02
2023-01-29T23:04:37.629Z,15.48
2023-01-29T23:07:39.893Z,13.52
2023-01-29T23:10:42.060Z,15.80
2023-01-29T23:13:45.810Z,16.88
2023-01-29T23:16:47.940Z,17.40
2023-01-29T23:19:50.101Z,19.50
2023-01-29T23:22:52.314Z,17.55
2023-01-29T23:26:17.303Z,16.90
2023-01-29T23:29:19.579Z,17.10
2023-01-29T23:32:21.991Z,16.88
2023-01-29T23:35:24.113Z,16.63
2023-01-29T23:38:26.276Z,17.33
2023-01-29T23:41:28.845Z,16.40
2023-01-29T23:44:30.993Z,15.60
2023-01-29T23:47:33.044Z,15.38
2023-01-29T23:50:39.737Z,16.73
2023-01-29T23:53:42.013Z,16.17
2023-01-29T23:56:44.710Z,14.27
2023-01-29T23:59:46.906Z,15.57
